Time;durP1;ratioP1;P1;durP2;ratioP2;P2;SDS_P1;SDS_P2;PMS_P1;PMS_P2;Temp;Humidity;BMP_temperature;BMP_pressure;BME280_temperature;BME280_humidity;BME280_pressure;Samples;Min_cycle;Max_cycle;Signal;HPM_P1;HPM_P2
2023/03/14 00:00:50;;;;;;;1.40;0.60;;;;;;;10.68;100.00;95424.41;5070987;28;20578;-54
2023/03/14 00:03:17;;;;;;;1.73;0.60;;;;;;;10.62;100.00;95425.09;5070889;28;20237;-56
2023/03/14 00:05:43;;;;;;;1.70;0.60;;;;;;;10.65;100.00;95435.34;5070773;28;20202;-55
2023/03/14 00:08:10;;;;;;;0.30;0.30;;;;;;;10.60;100.00;95441.13;5071154;28;20254;-56
2023/03/14 00:10:37;;;;;;;0.43;0.40;;;;;;;10.63;100.00;95451.34;5070063;28;20740;-56
2023/03/14 00:13:03;;;;;;;1.23;0.30;;;;;;;10.66;100.00;95448.38;5071574;28;20210;-56
2023/03/14 00:15:33;;;;;;;0.23;0.23;;;;;;;10.62;100.00;95443.59;5070230;28;20202;-55
2023/03/14 00:17:59;;;;;;;2.77;0.60;;;;;;;10.63;100.00;95424.91;5070848;28;20206;-56
2023/03/14 00:20:26;;;;;;;0.40;0.30;;;;;;;10.62;100.00;95431.22;5070191;28;20257;-56
2023/03/14 00:22:52;;;;;;;0.30;0.30;;;;;;;10.62;100.00;95412.72;5071037;28;20682;-55
2023/03/14 00:25:19;;;;;;;0.43;0.30;;;;;;;10.58;100.00;95403.47;5069720;28;20209;-55
2023/03/14 00:27:45;;;;;;;1.50;0.20;;;;;;;10.57;100.00;95385.97;5070777;28;20229;-56
2023/03/14 00:30:12;;;;;;;0.10;0.10;;;;;;;10.54;100.00;95349.31;5069988;28;20522;-55
2023/03/14 00:32:41;;;;;;;0.97;0.30;;;;;;;10.64;100.00;95323.47;5070564;28;20214;-55
2023/03/14 00:35:08;;;;;;;0.77;0.10;;;;;;;10.61;100.00;95315.91;5070669;28;20198;-55
2023/03/14 00:37:34;;;;;;;0.30;0.30;;;;;;;10.58;100.00;95328.63;5070989;28;20207;-55
2023/03/14 00:40:01;;;;;;;0.10;0.10;;;;;;;10.53;100.00;95315.13;5071525;28;20198;-55
2023/03/14 00:42:27;;;;;;;0.10;0.10;;;;;;;10.53;100.00;95315.13;5070991;28;20214;-56
2023/03/14 00:44:54;;;;;;;1.33;0.20;;;;;;;10.41;100.00;95318.19;5070808;28;20241;-55
2023/03/14 00:47:20;;;;;;;0.10;0.10;;;;;;;10.25;100.00;95317.44;5070152;28;20226;-57
2023/03/14 00:49:48;;;;;;;1.10;0.10;;;;;;;10.25;100.00;95328.81;5070579;28;20239;-56
2023/03/14 00:52:14;;;;;;;0.20;0.10;;;;;;;10.09;100.00;95328.88;5069947;28;20202;-56
2023/03/14 00:54:41;;;;;;;0.50;0.10;;;;;;;10.04;100.00;95319.81;5070654;28;20631;-56
2023/03/14 00:57:07;;;;;;;0.43;0.10;;;;;;;10.02;100.00;95324.47;5070264;28;20217;-56
2023/03/14 00:59:33;;;;;;;0.20;0.10;;;;;;;9.92;100.00;95317.53;5070134;28;20573;-56
2023/03/14 01:02:00;;;;;;;0.10;0.00;;;;;;;9.89;100.00;95315.25;5069675;28;20635;-54
2023/03/14 01:04:26;;;;;;;0.20;0.20;;;;;;;9.91;100.00;95344.97;5070146;28;20210;-56
2023/03/14 01:06:54;;;;;;;0.30;0.30;;;;;;;9.79;100.00;95354.22;5070018;28;20631;-55
2023/03/14 01:09:21;;;;;;;0.20;0.20;;;;;;;9.88;100.00;95347.91;5070794;28;20675;-55
2023/03/14 01:11:48;;;;;;;1.67;0.30;;;;;;;9.83;100.00;95339.69;5070173;28;20199;-55
2023/03/14 01:14:15;;;;;;;0.10;0.10;;;;;;;9.83;100.00;95347.63;5070367;28;20210;-56
2023/03/14 01:16:42;;;;;;;0.50;0.10;;;;;;;9.71;100.00;95346.31;5070159;28;20206;-54
2023/03/14 01:19:08;;;;;;;1.03;0.10;;;;;;;9.82;100.00;95353.06;5070129;28;20190;-55
2023/03/14 01:21:35;;;;;;;0.20;0.20;;;;;;;9.61;100.00;95339.59;5069980;28;20205;-54
2023/03/14 01:24:07;;;;;;;0.13;0.10;;;;;;;9.61;100.00;95350.97;5070512;28;20206;-56
2023/03/14 01:26:35;;;;;;;0.20;0.20;;;;;;;9.52;100.00;95341.44;5070395;28;20205;-55
2023/03/14 01:29:02;;;;;;;1.20;0.30;;;;;;;9.53;100.00;95337.78;5070443;28;20225;-55
2023/03/14 01:31:28;;;;;;;0.20;0.20;;;;;;;9.45;100.00;95336.03;5077046;28;20237;-56
2023/03/14 01:33:54;;;;;;;0.73;0.10;;;;;;;9.41;100.00;95332.06;5076568;28;20213;-56
2023/03/14 01:36:21;;;;;;;0.00;0.00;;;;;;;9.28;100.00;95323.81;5070204;28;20542;-55
2023/03/14 01:38:47;;;;;;;0.10;0.10;;;;;;;9.27;100.00;95314.28;5070577;28;20202;-55
2023/03/14 01:41:17;;;;;;;1.10;0.40;;;;;;;9.30;100.00;95311.31;5070267;28;20559;-54
2023/03/14 01:43:44;;;;;;;0.00;0.00;;;;;;;9.31;100.00;95310.31;5072813;28;20203;-55
2023/03/14 01:46:33;;;;;;;0.10;0.10;;;;;;;9.18;100.00;95311.81;5074057;28;20275;-55
2023/03/14 01:49:04;;;;;;;0.53;0.10;;;;;;;9.23;100.00;95320.06;5075831;28;20635;-55
2023/03/14 01:51:35;;;;;;;0.80;0.20;;;;;;;9.14;100.00;95302.59;5081892;28;20202;-55
2023/03/14 01:54:06;;;;;;;0.13;0.10;;;;;;;9.08;100.00;95295.34;5083647;28;20202;-55
2023/03/14 01:56:34;;;;;;;0.10;0.10;;;;;;;9.14;100.00;95292.84;5075916;28;20260;-56
2023/03/14 01:59:02;;;;;;;1.00;0.20;;;;;;;9.14;100.00;95278.88;5072794;28;20224;-56
2023/03/14 02:01:29;;;;;;;0.33;0.10;;;;;;;9.15;100.00;95272.59;5073251;28;20203;-56
2023/03/14 02:03:57;;;;;;;0.20;0.20;;;;;;;9.20;100.00;95267.63;5074811;28;20218;-56
2023/03/14 02:06:27;;;;;;;0.70;0.10;;;;;;;9.16;100.00;95259.25;5072515;28;20202;-55
2023/03/14 02:08:54;;;;;;;0.40;0.10;;;;;;;9.17;100.00;95268.81;5073477;28;20225;-55
2023/03/14 02:11:21;;;;;;;0.00;0.00;;;;;;;9.11;100.00;95256.28;5073238;28;20207;-56
2023/03/14 02:13:49;;;;;;;0.10;0.10;;;;;;;9.19;100.00;95250.16;5073632;28;20207;-56
2023/03/14 02:16:16;;;;;;;0.20;0.10;;;;;;;9.21;100.00;95235.81;5073341;28;20222;-56
2023/03/14 02:18:42;;;;;;;0.00;0.00;;;;;;;9.25;100.00;95242.38;5073385;28;20202;-55
2023/03/14 02:21:13;;;;;;;0.00;0.00;;;;;;;9.21;100.00;95232.38;5072661;28;20217;-55
2023/03/14 02:23:46;;;;;;;0.00;0.00;;;;;;;9.32;100.00;95229.34;5073671;28;20225;-56
2023/03/14 02:26:16;;;;;;;0.13;0.10;;;;;;;9.29;100.00;95224.41;5073388;28;20209;-56
2023/03/14 02:28:44;;;;;;;0.10;0.10;;;;;;;9.41;100.00;95213.34;5072674;28;20218;-56
2023/03/14 02:31:11;;;;;;;0.93;0.20;;;;;;;9.32;100.00;95218.78;5073184;28;20230;-56
2023/03/14 02:33:39;;;;;;;0.30;0.10;;;;;;;9.21;100.00;95221.81;5072977;28;20494;-54
2023/03/14 02:36:08;;;;;;;0.37;0.20;;;;;;;9.33;100.00;95209.91;5073747;28;20211;-55
2023/03/14 02:38:38;;;;;;;0.30;0.20;;;;;;;9.35;100.00;95218.47;5073280;28;20210;-56
2023/03/14 02:41:05;;;;;;;0.10;0.10;;;;;;;9.43;100.00;95210.50;5072699;28;20206;-55
2023/03/14 02:43:32;;;;;;;0.30;0.20;;;;;;;9.46;100.00;95197.81;5072537;28;20214;-55
2023/03/14 02:46:01;;;;;;;0.10;0.10;;;;;;;9.45;100.00;95201.47;5073024;28;20230;-56
2023/03/14 02:48:29;;;;;;;0.10;0.10;;;;;;;9.47;100.00;95185.44;5072676;28;20226;-56
2023/03/14 02:50:58;;;;;;;0.10;0.10;;;;;;;9.34;100.00;95169.34;5072586;28;20205;-55
2023/03/14 02:53:26;;;;;;;1.03;0.10;;;;;;;9.30;100.00;95178.59;5071927;28;20191;-55
2023/03/14 02:55:53;;;;;;;0.00;0.00;;;;;;;9.32;100.00;95182.69;5072632;28;20213;-56
2023/03/14 02:58:20;;;;;;;0.10;0.10;;;;;;;9.30;100.00;95183.88;5072800;28;20226;-55
2023/03/14 03:00:47;;;;;;;0.10;0.10;;;;;;;9.17;100.00;95175.69;5072921;28;20216;-56
2023/03/14 03:03:15;;;;;;;0.10;0.10;;;;;;;9.19;100.00;95177.16;5071918;28;20214;-56
2023/03/14 03:05:42;;;;;;;0.57;0.20;;;;;;;9.14;100.00;95173.38;5072789;28;20267;-56
2023/03/14 03:08:09;;;;;;;0.53;0.00;;;;;;;9.15;100.00;95175.00;5072933;28;20237;-56
2023/03/14 03:10:35;;;;;;;0.33;0.13;;;;;;;9.11;100.00;95173.69;5090962;28;20236;-56
2023/03/14 03:13:02;;;;;;;0.53;0.10;;;;;;;9.14;100.00;95178.66;5085678;28;20207;-55
2023/03/14 03:15:29;;;;;;;0.20;0.20;;;;;;;9.18;100.00;95172.84;5079216;28;20206;-55
2023/03/14 03:17:55;;;;;;;1.00;1.00;;;;;;;9.14;100.00;95162.84;5083650;28;20266;-55
2023/03/14 03:20:23;;;;;;;0.33;0.10;;;;;;;9.16;100.00;95166.94;5084002;28;20205;-55
2023/03/14 03:22:49;;;;;;;0.10;0.10;;;;;;;9.20;100.00;95162.97;5080001;28;20210;-55
2023/03/14 03:25:16;;;;;;;0.10;0.10;;;;;;;9.23;100.00;95167.06;5076653;28;20206;-55
2023/03/14 03:27:43;;;;;;;0.10;0.10;;;;;;;9.16;100.00;95166.13;5080191;28;20199;-55
2023/03/14 03:30:10;;;;;;;0.13;0.13;;;;;;;9.32;100.00;95161.59;5091413;28;20232;-57
2023/03/14 03:32:37;;;;;;;0.83;0.10;;;;;;;9.27;100.00;95156.03;5094173;28;20194;-56
2023/03/14 03:35:05;;;;;;;0.10;0.10;;;;;;;9.33;100.00;95152.69;5093331;28;20212;-55
2023/03/14 03:37:33;;;;;;;0.00;0.00;;;;;;;9.32;100.00;95142.31;5084435;28;20228;-55
2023/03/14 03:40:00;;;;;;;0.43;0.17;;;;;;;9.36;100.00;95147.06;5076657;28;20210;-54
2023/03/14 03:42:27;;;;;;;0.10;0.10;;;;;;;9.36;100.00;95148.88;5083065;28;20210;-56
2023/03/14 03:44:54;;;;;;;0.20;0.20;;;;;;;9.34;100.00;95145.59;5078123;28;20643;-55
2023/03/14 03:47:20;;;;;;;1.17;0.10;;;;;;;9.27;100.00;95142.84;5072161;28;20198;-55
2023/03/14 03:49:46;;;;;;;0.20;0.10;;;;;;;9.25;100.00;95144.81;5071569;28;20238;-54
2023/03/14 03:52:13;;;;;;;0.00;0.00;;;;;;;9.12;100.00;95146.34;5071363;28;20210;-55
2023/03/14 03:54:41;;;;;;;0.03;0.03;;;;;;;9.04;100.00;95138.47;5071360;28;20654;-56
2023/03/14 03:57:07;;;;;;;0.10;0.07;;;;;;;9.04;100.00;95138.47;5071628;28;20648;-56
2023/03/14 03:59:33;;;;;;;0.00;0.00;;;;;;;9.02;100.00;95137.81;5072643;28;20218;-55
2023/03/14 04:02:00;;;;;;;0.10;0.10;;;;;;;9.14;100.00;95116.16;5072299;28;20202;-55
2023/03/14 04:04:27;;;;;;;0.27;0.00;;;;;;;9.18;100.00;95111.38;5071364;28;20211;-55
2023/03/14 04:06:53;;;;;;;0.00;0.00;;;;;;;9.17;100.00;95115.84;5069661;28;20276;-55
2023/03/14 04:09:19;;;;;;;0.17;0.10;;;;;;;9.15;100.00;95117.00;5071515;28;20233;-56
2023/03/14 04:11:47;;;;;;;0.40;0.10;;;;;;;9.15;100.00;95111.72;5072014;28;20229;-55
2023/03/14 04:14:14;;;;;;;0.40;0.10;;;;;;;9.20;100.00;95099.69;5072150;28;20562;-55
2023/03/14 04:16:44;;;;;;;0.27;0.20;;;;;;;9.18;100.00;95100.81;5072193;28;20206;-56
2023/03/14 04:19:10;;;;;;;0.00;0.00;;;;;;;9.28;100.00;95096.19;5071627;28;20203;-55
2023/03/14 04:21:40;;;;;;;0.20;0.20;;;;;;;9.23;100.00;95082.69;5071197;28;20215;-56
2023/03/14 04:24:06;;;;;;;0.43;0.23;;;;;;;9.23;100.00;95091.41;5072304;28;20299;-56
2023/03/14 04:26:33;;;;;;;1.23;0.10;;;;;;;9.15;100.00;95083.53;5071398;28;20206;-56
2023/03/14 04:29:01;;;;;;;0.00;0.00;;;;;;;9.09;100.00;95091.31;5072595;28;20245;-55
2023/03/14 04:31:27;;;;;;;0.30;0.23;;;;;;;9.06;100.00;95086.41;5070824;28;20198;-56
2023/03/14 04:33:53;;;;;;;0.00;0.00;;;;;;;9.00;100.00;95086.06;5071629;28;20205;-58
2023/03/14 04:36:20;;;;;;;0.10;0.10;;;;;;;8.99;100.00;95076.53;5070889;28;20206;-57
2023/03/14 04:38:46;;;;;;;1.03;0.20;;;;;;;8.94;100.00;95073.59;5072455;28;20198;-55
2023/03/14 04:41:13;;;;;;;0.10;0.10;;;;;;;8.89;100.00;95070.63;5071432;28;20202;-55
2023/03/14 04:43:39;;;;;;;0.00;0.00;;;;;;;8.96;100.00;95055.78;5070895;28;20210;-55
2023/03/14 04:46:07;;;;;;;1.10;0.13;;;;;;;8.95;100.00;95051.50;5070730;28;20194;-55
2023/03/14 04:48:34;;;;;;;0.67;0.37;;;;;;;8.88;100.00;95047.91;5070564;28;20253;-56
2023/03/14 04:51:00;;;;;;;1.13;0.10;;;;;;;8.83;100.00;95034.41;5070366;28;20198;-55
2023/03/14 04:53:26;;;;;;;0.10;0.10;;;;;;;8.81;100.00;95031.16;5070717;28;20232;-56
2023/03/14 04:55:55;;;;;;;0.47;0.20;;;;;;;8.78;100.00;95025.41;5070824;28;20206;-55
2023/03/14 04:58:22;;;;;;;1.17;0.30;;;;;;;8.78;100.00;95022.75;5070616;28;20199;-56
2023/03/14 05:00:48;;;;;;;0.27;0.27;;;;;;;8.74;100.00;95027.56;5070225;28;20225;-55
2023/03/14 05:03:16;;;;;;;0.13;0.10;;;;;;;8.64;100.00;95024.31;5069978;28;20218;-56
2023/03/14 05:05:43;;;;;;;0.20;0.20;;;;;;;8.70;100.00;95023.63;5070434;28;20209;-56
2023/03/14 05:08:09;;;;;;;0.20;0.20;;;;;;;8.64;100.00;95011.13;5070757;28;20210;-55
2023/03/14 05:10:36;;;;;;;0.20;0.20;;;;;;;8.65;100.00;95012.75;5070785;28;20253;-56
2023/03/14 05:13:03;;;;;;;0.57;0.43;;;;;;;8.67;100.00;95004.69;5070502;28;20198;-56
2023/03/14 05:15:29;;;;;;;0.10;0.10;;;;;;;8.72;100.00;95011.06;5070686;28;20240;-56
2023/03/14 05:17:55;;;;;;;1.03;0.10;;;;;;;8.75;100.00;95002.81;5073385;28;20206;-55
2023/03/14 05:20:23;;;;;;;0.10;0.10;;;;;;;8.77;100.00;95002.66;5074511;28;20639;-55
2023/03/14 05:22:50;;;;;;;0.47;0.20;;;;;;;8.75;100.00;94997.56;5075090;28;20202;-56
2023/03/14 05:25:16;;;;;;;0.20;0.20;;;;;;;8.69;100.00;94998.25;5073795;28;20673;-56
2023/03/14 05:27:43;;;;;;;0.10;0.10;;;;;;;8.78;100.00;94993.78;5074076;28;20233;-55
2023/03/14 05:30:11;;;;;;;0.47;0.17;;;;;;;8.73;100.00;94990.81;5074426;28;20583;-55
2023/03/14 05:32:37;;;;;;;0.20;0.20;;;;;;;8.71;100.00;94980.47;5074195;28;20255;-56
2023/03/14 05:35:04;;;;;;;0.20;0.20;;;;;;;8.63;100.00;94974.41;5074286;28;20264;-56
2023/03/14 05:37:34;;;;;;;1.50;0.23;;;;;;;8.66;100.00;94972.25;5073315;28;20198;-55
2023/03/14 05:40:00;;;;;;;0.10;0.10;;;;;;;8.70;100.00;94968.28;5074026;28;20190;-56
2023/03/14 05:42:27;;;;;;;0.73;0.43;;;;;;;8.69;100.00;94958.72;5074169;28;20210;-56
2023/03/14 05:44:53;;;;;;;0.73;0.20;;;;;;;8.75;100.00;94942.22;5073982;28;20202;-55
2023/03/14 05:47:20;;;;;;;0.30;0.10;;;;;;;8.67;100.00;94939.66;5074498;28;20202;-54
2023/03/14 05:49:46;;;;;;;0.17;0.17;;;;;;;8.70;100.00;94944.56;5073793;28;20280;-55
2023/03/14 05:52:13;;;;;;;0.30;0.30;;;;;;;8.72;100.00;94926.75;5073406;28;20658;-55
2023/03/14 05:54:41;;;;;;;0.20;0.20;;;;;;;8.62;100.00;94915.63;5073074;28;20876;-55
2023/03/14 05:57:07;;;;;;;0.10;0.10;;;;;;;8.69;100.00;94921.00;5073846;28;20210;-54
2023/03/14 05:59:35;;;;;;;0.27;0.27;;;;;;;8.74;100.00;94926.59;5073589;28;20230;-59
2023/03/14 06:02:01;;;;;;;0.47;0.47;;;;;;;8.76;100.00;94922.78;5072642;28;20217;-52
2023/03/14 06:04:27;;;;;;;0.40;0.40;;;;;;;8.76;100.00;94925.41;5073020;28;20195;-52
2023/03/14 06:06:54;;;;;;;0.20;0.20;;;;;;;8.87;100.00;94921.56;5072738;28;20210;-53
2023/03/14 06:09:23;;;;;;;0.20;0.20;;;;;;;8.92;97.87;94922.69;5073285;28;20222;-55
2023/03/14 06:11:50;;;;;;;0.20;0.20;;;;;;;8.92;98.73;94927.97;5072789;28;20210;-56
2023/03/14 06:14:17;;;;;;;0.63;0.20;;;;;;;8.89;99.37;94940.69;5073628;28;20209;-55
2023/03/14 06:16:44;;;;;;;0.20;0.20;;;;;;;8.94;96.66;94940.97;5073217;28;20534;-55
2023/03/14 06:19:11;;;;;;;0.20;0.20;;;;;;;9.00;94.48;94935.81;5073287;28;20213;-54
2023/03/14 06:21:38;;;;;;;0.50;0.33;;;;;;;9.03;93.56;94939.09;5073564;28;20294;-55
2023/03/14 06:24:04;;;;;;;1.20;0.60;;;;;;;9.00;95.36;94941.06;5073357;28;20207;-56
2023/03/14 06:26:31;;;;;;;0.13;0.13;;;;;;;9.13;93.97;94926.50;5073395;28;20226;-55
2023/03/14 06:29:03;;;;;;;0.20;0.10;;;;;;;9.17;93.04;94933.06;5072715;28;20297;-55
2023/03/14 06:31:29;;;;;;;0.13;0.10;;;;;;;9.17;94.67;94939.16;5072966;28;20210;-55
2023/03/14 06:33:56;;;;;;;0.20;0.20;;;;;;;9.17;94.94;94946.25;5074076;28;20199;-53
2023/03/14 06:36:22;;;;;;;0.30;0.30;;;;;;;9.16;97.09;94949.88;5072697;28;20195;-55
2023/03/14 06:38:50;;;;;;;0.60;0.40;;;;;;;9.13;97.67;94951.06;5073030;28;20560;-55
2023/03/14 06:41:18;;;;;;;1.17;0.40;;;;;;;9.17;95.12;94951.53;5072515;28;20654;-55
2023/03/14 06:43:45;;;;;;;0.83;0.50;;;;;;;9.10;96.61;94943.50;5073057;28;20199;-54
2023/03/14 06:46:12;;;;;;;0.83;0.67;;;;;;;9.02;98.22;94950.63;5072865;28;20202;-54
2023/03/14 06:48:39;;;;;;;0.97;0.60;;;;;;;9.02;98.47;94955.91;5074073;28;20670;-55
2023/03/14 06:51:06;;;;;;;0.40;0.40;;;;;;;8.91;98.92;94965.03;5089515;28;20214;-55
2023/03/14 06:53:33;;;;;;;1.47;0.70;;;;;;;8.83;99.99;94968.53;5086449;28;20232;-56
2023/03/14 06:55:59;;;;;;;0.40;0.40;;;;;;;9.04;100.00;94969.72;5080008;28;20210;-56
2023/03/14 06:58:26;;;;;;;1.43;0.40;;;;;;;9.16;100.00;94994.72;5078742;28;21004;-55
2023/03/14 07:00:54;;;;;;;0.53;0.40;;;;;;;9.25;99.64;94991.84;5077594;28;20209;-55
2023/03/14 07:03:21;;;;;;;0.70;0.60;;;;;;;9.28;97.69;94991.47;5076380;28;20490;-56
2023/03/14 07:05:48;;;;;;;0.30;0.30;;;;;;;9.37;98.73;94997.53;5077198;28;20210;-55
2023/03/14 07:08:15;;;;;;;0.50;0.50;;;;;;;9.42;96.30;94995.19;5080179;28;20228;-55
2023/03/14 07:10:41;;;;;;;0.57;0.30;;;;;;;9.46;94.30;94986.72;5082535;28;20258;-55
2023/03/14 07:13:08;;;;;;;0.53;0.40;;;;;;;9.61;93.17;95004.44;5072971;28;20529;-55
2023/03/14 07:15:34;;;;;;;0.20;0.20;;;;;;;9.69;91.33;95001.75;5072440;28;20210;-55
2023/03/14 07:18:01;;;;;;;0.50;0.50;;;;;;;9.82;92.17;95005.41;5072366;28;20211;-54
2023/03/14 07:20:29;;;;;;;0.63;0.30;;;;;;;9.94;91.08;95004.00;5071632;28;20242;-55
2023/03/14 07:22:56;;;;;;;0.63;0.30;;;;;;;10.12;89.97;95013.41;5072292;28;20209;-55
2023/03/14 07:25:22;;;;;;;0.20;0.20;;;;;;;10.18;90.82;95029.38;5072042;28;20198;-56
2023/03/14 07:27:48;;;;;;;0.37;0.37;;;;;;;10.18;89.70;95018.00;5071879;28;20213;-54
2023/03/14 07:30:15;;;;;;;0.20;0.20;;;;;;;10.22;89.35;95022.75;5071733;28;20233;-56
2023/03/14 07:32:41;;;;;;;0.30;0.30;;;;;;;10.26;90.38;95025.84;5072241;28;20201;-56
2023/03/14 07:35:09;;;;;;;0.20;0.20;;;;;;;10.24;90.08;95019.91;5071693;28;20214;-59
2023/03/14 07:37:36;;;;;;;0.20;0.20;;;;;;;10.18;88.04;95026.75;5071784;28;20221;-55
2023/03/14 07:40:06;;;;;;;0.20;0.20;;;;;;;10.21;89.06;95031.66;5070837;28;20191;-55
2023/03/14 07:42:33;;;;;;;0.40;0.40;;;;;;;10.14;90.06;95024.59;5071777;28;20285;-54
2023/03/14 07:44:59;;;;;;;4.03;0.60;;;;;;;10.29;91.58;95028.13;5071988;28;20198;-53
2023/03/14 07:47:26;;;;;;;0.63;0.40;;;;;;;10.31;90.24;95032.22;5071310;28;20213;-55
2023/03/14 07:49:52;;;;;;;1.30;0.30;;;;;;;10.33;88.43;95039.97;5071193;28;20230;-56
2023/03/14 07:52:18;;;;;;;0.40;0.40;;;;;;;10.35;87.47;95037.97;5070911;28;20573;-54
2023/03/14 07:54:46;;;;;;;0.20;0.20;;;;;;;10.35;86.55;95040.59;5071274;28;20216;-55
2023/03/14 07:57:13;;;;;;;0.83;0.27;;;;;;;10.39;85.31;95044.53;5071816;28;20206;-55
2023/03/14 07:59:40;;;;;;;0.70;0.30;;;;;;;10.38;87.59;95049.00;5071587;28;20298;-54
2023/03/14 08:02:10;;;;;;;1.07;0.40;;;;;;;10.33;86.87;95050.53;5070983;28;20635;-55
2023/03/14 08:04:37;;;;;;;0.40;0.30;;;;;;;10.34;87.86;95049.56;5071582;28;20310;-54
2023/03/14 08:07:03;;;;;;;0.20;0.20;;;;;;;10.43;88.78;95054.56;5071653;28;20207;-54
2023/03/14 08:09:30;;;;;;;0.50;0.33;;;;;;;10.48;85.63;95048.75;5071601;28;20214;-54
2023/03/14 08:11:58;;;;;;;0.40;0.30;;;;;;;10.61;85.35;95059.50;5070962;28;20198;-56
2023/03/14 08:14:24;;;;;;;0.33;0.33;;;;;;;10.49;85.71;95060.94;5071157;28;20199;-56
2023/03/14 08:16:51;;;;;;;1.03;0.47;;;;;;;10.44;85.87;95060.69;5071272;28;20241;-56
2023/03/14 08:19:18;;;;;;;0.40;0.40;;;;;;;10.53;85.88;95064.88;5071635;28;20206;-54
2023/03/14 08:21:44;;;;;;;0.40;0.30;;;;;;;10.57;86.06;95068.78;5070404;28;20203;-56
2023/03/14 08:24:11;;;;;;;1.50;0.50;;;;;;;10.60;86.32;95071.06;5070951;28;20530;-56
2023/03/14 08:26:37;;;;;;;1.27;0.60;;;;;;;10.58;83.86;95074.91;5070711;28;20217;-54
2023/03/14 08:29:05;;;;;;;0.47;0.47;;;;;;;10.49;85.75;95058.28;5070786;28;20203;-56
2023/03/14 08:31:32;;;;;;;0.27;0.23;;;;;;;10.53;84.92;95054.28;5071248;28;20226;-56
2023/03/14 08:33:59;;;;;;;1.33;0.20;;;;;;;10.59;85.37;95056.22;5078541;28;20207;-55
2023/03/14 08:36:25;;;;;;;0.27;0.20;;;;;;;10.57;85.07;95050.28;5078439;28;20205;-55
2023/03/14 08:38:52;;;;;;;0.37;0.37;;;;;;;10.64;84.47;95042.44;5076102;28;20194;-55
2023/03/14 08:41:18;;;;;;;0.30;0.30;;;;;;;10.68;84.19;95044.56;5077850;28;20202;-56
2023/03/14 08:43:45;;;;;;;0.20;0.20;;;;;;;10.76;85.47;95041.81;5075981;28;20202;-56
2023/03/14 08:46:12;;;;;;;3.20;1.17;;;;;;;10.74;87.99;95053.56;5075484;28;20206;-55
2023/03/14 08:48:39;;;;;;;0.40;0.40;;;;;;;10.84;86.04;95039.06;5074530;28;20292;-54
2023/03/14 08:51:06;;;;;;;0.30;0.30;;;;;;;10.80;84.21;95037.81;5072462;28;20659;-55
2023/03/14 08:53:33;;;;;;;0.50;0.30;;;;;;;11.06;85.46;95055.00;5070862;28;20256;-56
2023/03/14 08:55:59;;;;;;;0.30;0.30;;;;;;;11.26;86.35;95042.84;5071041;28;20206;-55
2023/03/14 08:58:26;;;;;;;2.20;0.60;;;;;;;11.34;82.88;95051.47;5070691;28;20206;-55
2023/03/14 09:00:52;;;;;;;1.23;0.40;;;;;;;11.32;84.17;95072.03;5070764;28;20203;-54
2023/03/14 09:03:22;;;;;;;2.73;0.57;;;;;;;11.43;85.36;95073.38;5070302;28;20539;-56
2023/03/14 09:05:49;;;;;;;0.40;0.30;;;;;;;11.36;86.32;95083.06;5069267;28;20199;-56
2023/03/14 09:08:15;;;;;;;0.30;0.30;;;;;;;11.31;86.73;95075.66;5070169;28;20214;-56
2023/03/14 09:10:42;;;;;;;1.17;0.30;;;;;;;11.27;85.38;95081.50;5069755;28;20529;-54
2023/03/14 09:13:08;;;;;;;0.27;0.27;;;;;;;11.22;85.26;95087.38;5075351;28;20210;-55
2023/03/14 09:15:35;;;;;;;1.13;0.60;;;;;;;11.12;87.64;95080.72;5083900;28;20202;-55
2023/03/14 09:18:01;;;;;;;2.57;1.40;;;;;;;11.15;86.53;95067.13;5077231;28;20520;-55
2023/03/14 09:20:29;;;;;;;0.70;0.70;;;;;;;11.16;86.25;95069.56;5070151;28;20536;-56
2023/03/14 09:22:55;;;;;;;0.93;0.37;;;;;;;11.14;85.34;95078.72;5070202;28;20286;-55
2023/03/14 09:25:22;;;;;;;1.07;0.90;;;;;;;11.13;86.75;95082.34;5069706;28;20305;-55
2023/03/14 09:27:48;;;;;;;1.33;1.23;;;;;;;11.15;86.72;95090.94;5070407;28;20534;-55
2023/03/14 09:30:15;;;;;;;0.67;0.30;;;;;;;11.22;86.81;95089.19;5070614;28;20222;-55
2023/03/14 09:32:41;;;;;;;0.30;0.30;;;;;;;11.17;85.65;95081.81;5077357;28;20232;-56
2023/03/14 09:35:09;;;;;;;0.20;0.20;;;;;;;11.19;86.98;95089.56;5095834;28;20174;-54
2023/03/14 09:37:37;;;;;;;0.57;0.30;;;;;;;11.25;86.06;95099.41;5084994;28;20213;-55
2023/03/14 09:40:10;;;;;;;0.40;0.20;;;;;;;11.22;85.81;95091.84;5092199;28;20197;-54
2023/03/14 09:42:37;;;;;;;0.17;0.17;;;;;;;11.25;86.70;95091.47;5092339;28;20194;-55
2023/03/14 09:45:06;;;;;;;0.20;0.20;;;;;;;11.22;85.99;95091.84;5090716;28;20199;-56
2023/03/14 09:47:33;;;;;;;0.20;0.20;;;;;;;11.03;86.53;95100.34;5076299;28;20209;-56
2023/03/14 09:50:01;;;;;;;0.03;0.03;;;;;;;11.22;85.73;95107.72;5079921;28;20694;-55
2023/03/14 09:52:30;;;;;;;0.57;0.33;;;;;;;11.25;85.64;95094.13;5070788;28;20226;-55
2023/03/14 09:55:00;;;;;;;0.20;0.20;;;;;;;11.31;85.18;95114.53;5071370;28;20292;-55
2023/03/14 09:57:28;;;;;;;0.40;0.20;;;;;;;11.21;85.58;95106.91;5070449;28;20203;-55
2023/03/14 09:59:58;;;;;;;0.23;0.23;;;;;;;11.17;85.81;95104.78;5070168;28;20206;-55
2023/03/14 10:02:26;;;;;;;1.73;0.67;;;;;;;11.22;86.11;95119.13;5070215;28;20223;-55
2023/03/14 10:04:54;;;;;;;1.00;0.70;;;;;;;11.24;85.79;95121.56;5072977;28;20260;-56
2023/03/14 10:07:26;;;;;;;0.17;0.10;;;;;;;11.04;86.17;95123.16;5073168;28;20635;-54
2023/03/14 10:09:52;;;;;;;0.67;0.40;;;;;;;11.14;87.01;95121.03;5077616;28;20206;-54
2023/03/14 10:12:20;;;;;;;0.23;0.23;;;;;;;11.11;87.13;95139.94;5078785;28;20226;-55
2023/03/14 10:14:49;;;;;;;0.33;0.33;;;;;;;11.08;87.82;95140.31;5077513;28;20195;-56
2023/03/14 10:17:16;;;;;;;0.77;0.30;;;;;;;11.01;87.58;95140.22;5073282;28;20289;-55
2023/03/14 10:19:53;;;;;;;0.53;0.30;;;;;;;10.92;88.69;95136.00;5073563;28;20229;-56
2023/03/14 10:22:20;;;;;;;0.33;0.30;;;;;;;10.91;89.47;95144.94;5073238;28;20845;-55
2023/03/14 10:24:47;;;;;;;0.93;0.50;;;;;;;10.83;90.43;95150.31;5073617;28;20589;-55
2023/03/14 10:27:21;;;;;;;0.33;0.30;;;;;;;10.72;92.35;95159.50;5073420;28;20290;-55
2023/03/14 10:29:53;;;;;;;0.30;0.30;;;;;;;10.70;93.98;95158.84;5079712;28;20199;-54
2023/03/14 10:32:21;;;;;;;1.23;0.60;;;;;;;10.69;95.53;95151.13;5085149;28;20214;-55
2023/03/14 10:35:06;;;;;;;0.50;0.50;;;;;;;10.79;95.64;95157.78;5076580;28;20206;-55
2023/03/14 10:37:33;;;;;;;0.27;0.20;;;;;;;10.92;96.72;95155.34;5078592;28;20210;-54
2023/03/14 10:40:05;;;;;;;0.10;0.10;;;;;;;11.10;94.80;95162.09;5077904;28;20291;-56
2023/03/14 10:42:34;;;;;;;0.70;0.40;;;;;;;10.95;95.91;95162.91;5077506;28;20565;-56
2023/03/14 10:45:02;;;;;;;0.20;0.20;;;;;;;10.94;94.40;95171.03;5075354;28;20203;-56
2023/03/14 10:47:29;;;;;;;0.90;0.20;;;;;;;10.87;94.95;95180.69;5079145;28;20214;-56
2023/03/14 10:49:55;;;;;;;0.10;0.10;;;;;;;10.80;94.70;95195.63;5078321;28;20547;-56
2023/03/14 10:52:24;;;;;;;0.13;0.13;;;;;;;10.75;97.40;95195.34;5076765;28;20299;-56
2023/03/14 10:54:55;;;;;;;0.27;0.20;;;;;;;10.69;99.00;95201.34;5072336;28;20202;-55
2023/03/14 10:57:22;;;;;;;0.20;0.20;;;;;;;10.53;100.00;95210.22;5073038;28;20195;-55
2023/03/14 10:59:50;;;;;;;0.10;0.10;;;;;;;10.41;99.36;95219.59;5072675;28;20203;-54
2023/03/14 11:02:31;;;;;;;0.40;0.30;;;;;;;10.23;100.00;95234.91;5074735;28;20195;-55
2023/03/14 11:05:07;;;;;;;1.73;0.30;;;;;;;10.07;100.00;95224.38;5072938;28;20198;-55
2023/03/14 11:07:37;;;;;;;0.23;0.20;;;;;;;10.07;100.00;95227.03;5072247;28;20213;-56
2023/03/14 11:10:11;;;;;;;0.20;0.20;;;;;;;9.88;100.00;95246.78;5073184;28;20230;-55
2023/03/14 11:12:43;;;;;;;0.20;0.20;;;;;;;9.67;100.00;95255.28;5072784;28;20221;-55
2023/03/14 11:15:18;;;;;;;0.77;0.30;;;;;;;9.67;100.00;95265.84;5075953;28;20198;-55
2023/03/14 11:17:52;;;;;;;0.30;0.30;;;;;;;9.52;100.00;95264.91;5072313;28;20205;-55
2023/03/14 11:20:32;;;;;;;0.50;0.40;;;;;;;9.44;100.00;95273.69;5072352;28;20205;-56
2023/03/14 11:23:00;;;;;;;0.60;0.57;;;;;;;9.35;100.00;95302.91;5073371;28;20209;-56
2023/03/14 11:25:31;;;;;;;0.20;0.20;;;;;;;9.18;100.00;95291.53;5074885;28;20206;-55
2023/03/14 11:28:04;;;;;;;0.97;0.30;;;;;;;9.19;100.00;95303.72;5074139;28;20201;-55
2023/03/14 11:30:36;;;;;;;1.43;0.40;;;;;;;9.08;100.00;95305.88;5075236;28;20195;-54
2023/03/14 11:33:06;;;;;;;0.20;0.20;;;;;;;8.93;100.00;95330.28;5074540;28;20523;-55
2023/03/14 11:35:36;;;;;;;0.47;0.30;;;;;;;8.86;100.00;95323.19;5073285;28;20199;-55